createdAt,value
2023-04-21T00:00:55.718Z,7.74
2023-04-21T00:10:55.645Z,7.72
2023-04-21T00:20:55.690Z,7.66
2023-04-21T00:30:55.666Z,7.56
2023-04-21T00:40:55.682Z,7.61
2023-04-21T00:50:55.691Z,7.6
2023-04-21T01:00:55.715Z,7.63
2023-04-21T01:10:55.667Z,7.64
2023-04-21T01:20:55.647Z,7.66
2023-04-21T01:30:55.914Z,7.63
2023-04-21T01:40:55.631Z,7.66
2023-04-21T01:50:55.615Z,7.68
2023-04-21T02:00:55.682Z,7.68
2023-04-21T02:10:55.656Z,7.64
2023-04-21T02:20:55.622Z,7.59
2023-04-21T02:30:55.660Z,7.56
2023-04-21T02:40:55.624Z,7.55
2023-04-21T02:50:55.652Z,7.6
2023-04-21T03:00:55.701Z,7.65
2023-04-21T03:10:55.592Z,7.67
2023-04-21T03:20:55.636Z,7.66
2023-04-21T03:30:55.619Z,7.66
2023-04-21T03:40:55.686Z,7.65
2023-04-21T03:50:55.711Z,7.64
2023-04-21T04:00:55.574Z,7.67
2023-04-21T04:10:55.584Z,7.68
2023-04-21T04:20:55.579Z,7.69
2023-04-21T04:30:55.597Z,7.66
2023-04-21T04:40:55.565Z,7.67
2023-04-21T04:50:55.592Z,7.73
2023-04-21T05:00:55.550Z,7.74
2023-04-21T05:20:55.555Z,7.8
2023-04-21T05:30:55.587Z,7.91
2023-04-21T05:40:55.556Z,7.99
2023-04-21T05:50:55.587Z,8.06
2023-04-21T06:00:55.577Z,8.19
2023-04-21T06:10:55.573Z,8.17
2023-04-21T06:20:55.596Z,8.24
2023-04-21T06:30:55.550Z,8.3
2023-04-21T06:40:55.571Z,8.38
2023-04-21T06:50:55.555Z,8.37
2023-04-21T07:00:55.664Z,8.51
2023-04-21T07:10:55.572Z,8.59
2023-04-21T07:20:55.555Z,8.69
2023-04-21T07:30:55.626Z,8.87
2023-04-21T07:40:55.578Z,9.22
2023-04-21T07:50:55.520Z,9.24
2023-04-21T08:00:55.547Z,9.42
2023-04-21T08:10:55.602Z,9.63
2023-04-21T08:20:55.631Z,9.96
2023-04-21T08:30:55.514Z,10.23
2023-04-21T08:40:55.588Z,10.38
2023-04-21T08:50:55.509Z,10.59
2023-04-21T09:00:55.548Z,10.63
2023-04-21T09:10:55.500Z,11.22
2023-04-21T09:20:55.506Z,11.79
2023-04-21T09:30:55.581Z,11.92
2023-04-21T09:40:55.456Z,12.43
2023-04-21T10:00:55.725Z,13.59
2023-04-21T10:10:55.481Z,14.21
2023-04-21T10:20:55.456Z,14.72
2023-04-21T10:30:55.451Z,15.65
2023-04-21T10:40:55.421Z,16.08
2023-04-21T10:50:55.456Z,15.95
2023-04-21T11:00:55.489Z,15.66
2023-04-21T11:10:55.388Z,15.36
2023-04-21T11:20:55.396Z,15.46
2023-04-21T11:30:55.483Z,15.55
2023-04-21T11:40:55.375Z,16.71
2023-04-21T11:50:55.359Z,15.96
2023-04-21T12:00:55.453Z,15.04
2023-04-21T12:10:55.334Z,14.96
2023-04-21T12:20:55.289Z,14.99
2023-04-21T12:30:55.306Z,15.68
2023-04-21T12:40:55.335Z,18.08
2023-04-21T12:50:55.289Z,18.53
2023-04-21T13:00:55.347Z,18.75
2023-04-21T13:10:55.558Z,19.2
2023-04-21T13:20:55.258Z,19.75
2023-04-21T13:30:55.257Z,19.42
2023-04-21T13:40:55.236Z,18.54
2023-04-21T13:50:55.227Z,19.61
2023-04-21T14:00:55.232Z,19.08
2023-04-21T14:10:55.234Z,18.22
2023-04-21T14:20:55.203Z,17.29
2023-04-21T14:30:55.210Z,17.33
2023-04-21T14:40:55.218Z,16.77
2023-04-21T14:50:55.212Z,16.78
2023-04-21T15:00:55.187Z,17.1
2023-04-21T15:10:55.173Z,17.04
2023-04-21T15:20:55.154Z,16.8
2023-04-21T15:30:55.245Z,16.76
2023-04-21T15:50:55.165Z,15.87
2023-04-21T16:00:55.086Z,16.69
2023-04-21T16:10:55.120Z,17.75
2023-04-21T16:20:55.093Z,18.93
2023-04-21T16:30:55.106Z,18.68
2023-04-21T16:40:55.163Z,18.25
2023-04-21T16:50:55.133Z,17.79
2023-04-21T17:00:55.072Z,17.06
2023-04-21T17:10:55.090Z,15.79
2023-04-21T17:20:55.044Z,15.11
2023-04-21T17:31:03.506Z,14.4
2023-04-21T17:40:55.013Z,13.94
2023-04-21T17:50:55.030Z,13.51
2023-04-21T18:00:55.037Z,13.08
2023-04-21T18:10:55.021Z,12.64
2023-04-21T18:20:54.994Z,12.35
2023-04-21T18:30:55.013Z,12.01
2023-04-21T18:40:54.978Z,11.96
2023-04-21T18:50:54.968Z,11.65
2023-04-21T19:00:55.044Z,11.18
2023-04-21T19:10:54.990Z,10.82
2023-04-21T19:20:54.955Z,10.5
2023-04-21T19:30:54.952Z,10.24
2023-04-21T19:40:54.962Z,9.97
2023-04-21T19:50:54.981Z,9.56
2023-04-21T20:00:54.940Z,9.05
2023-04-21T20:10:54.977Z,8.71
2023-04-21T20:20:54.986Z,8.49
2023-04-21T20:30:55.036Z,8.47
2023-04-21T20:40:54.932Z,8.46
2023-04-21T20:50:54.936Z,8.34
2023-04-21T21:00:54.994Z,8.38
2023-04-21T21:10:54.953Z,8.02
2023-04-21T21:20:54.928Z,7.53
2023-04-21T21:30:54.960Z,7.15
2023-04-21T21:40:54.940Z,6.92
2023-04-21T21:50:54.931Z,6.65
2023-04-21T22:01:02.429Z,6.67
2023-04-21T22:10:54.882Z,6.6
2023-04-21T22:20:55.141Z,6.54
2023-04-21T22:30:55.049Z,6.48
2023-04-21T22:40:54.963Z,6.38
2023-04-21T22:50:54.928Z,6.11
2023-04-21T23:00:54.966Z,6.13
2023-04-21T23:10:54.923Z,5.94
2023-04-21T23:20:54.906Z,5.91
2023-04-21T23:30:55.018Z,5.68
2023-04-21T23:40:54.948Z,5.62
2023-04-21T23:50:54.988Z,5.34
